• Join FlightAware (Why Join?)
  • Login
  • US Flag 
02:52PM EDT


 

Airport Tracker/Info


-or-


 

Live Flight TrackerFlight Track Log ✈ AAY846 ✈ 05-Apr-2014 ✈ KPIE - KPIA

Flight Track Log - Related Links

Times and Time Zones

All times are in EDT time to prevent confusion due to time zone crossing. See the AAY846 flight status page for this flight to view local times or setup timezone preferences in your user account.

Time Position Orientation Groundspeed Altitude Reporting Facility
EDT Latitude Longitude Course Direction KTS MPH feet Rate Location/Type
08:26AM 27.9000 -82.6833 180° South 162 186 700  Level Tampa TRACON
08:26AM 27.8667 -82.6833 180° South 168 193 1,800 1,740 Climbing Tampa TRACON
08:28AM 27.8619 -82.7447 265° West 156 180 4,500 2,280 Climbing Jacksonville Center
08:29AM 27.9392 -82.7469 359° North 167 192 7,700 2,700 Climbing Jacksonville Center
08:30AM 28.0225 -82.7539 356° North 227 261 9,900 1,860 Climbing Jacksonville Center
08:31AM 28.1103 -82.7583 357° North 276 318 11,500 1,740 Climbing Jacksonville Center
08:32AM 28.2144 -82.7631 358° North 332 382 13,400 1,800 Climbing Jacksonville Center
08:33AM 28.3253 -82.7747 355° North 369 425 15,200 2,100 Climbing Jacksonville Center
08:34AM 28.4378 -82.8028 348° North 397 457 17,600 2,040 Climbing Jacksonville Center
08:35AM 28.5528 -82.8431 343° North 411 473 19,300 1,800 Climbing Jacksonville Center
08:36AM 28.6569 -82.9067 332° Northwest 416 479 21,200 1,680 Climbing Jacksonville Center
08:37AM 28.7633 -82.9683 333° Northwest 421 484 22,700 1,740 Climbing Jacksonville Center
08:38AM 28.8719 -83.0325 333° Northwest 426 490 24,700 2,400 Climbing Jacksonville Center
08:39AM 28.9761 -83.0847 336° Northwest 427 491 27,600 2,580 Climbing Jacksonville Center
08:40AM 29.0742 -83.1303 338° Northwest 411 473 29,900 1,380 Climbing Jacksonville Center
08:41AM 29.1744 -83.1756 338° Northwest 388 447 30,400 900 Climbing Jacksonville Center
08:42AM 29.2722 -83.2283 335° Northwest 388 447 31,800 780 Climbing Jacksonville Center
08:43AM 29.3619 -83.2786 334° Northwest 382 440 32,000 60 Climbing Jacksonville Center
08:44AM 29.4558 -83.3361 332° Northwest 368 423 32,000  Level Jacksonville Center
08:45AM 29.5494 -83.3917 333° Northwest 368 423 32,000  Level Jacksonville Center
08:46AM 29.6431 -83.4469 333° Northwest 373 429 32,000  Level Jacksonville Center
08:47AM 29.7181 -83.4906 333° Northwest 373 429 32,000  Level Jacksonville Center
08:48AM 29.8158 -83.5508 332° Northwest 367 422 32,000  Level Jacksonville Center
08:49AM 29.9097 -83.6042 334° Northwest 367 422 32,000  Level Jacksonville Center
08:50AM 30.0011 -83.6625 331° Northwest 367 422 32,000  Level Jacksonville Center
08:51AM 30.0928 -83.7136 334° Northwest 367 422 32,000  Level Jacksonville Center
08:52AM 30.1800 -83.7697 331° Northwest 367 422 32,000  Level Jacksonville Center
08:53AM 30.2736 -83.8233 334° Northwest 367 422 32,000  Level Jacksonville Center
08:54AM 30.3628 -83.8797 331° Northwest 367 422 32,000  Level Jacksonville Center
08:55AM 30.4544 -83.9311 334° Northwest 367 422 32,000  Level Jacksonville Center
08:56AM 30.5436 -83.9875 331° Northwest 367 422 32,000  Level Jacksonville Center
08:57AM 30.6414 -84.0442 334° Northwest 367 422 32,000  Level Jacksonville Center
08:58AM 30.7306 -84.1033 330° Northwest 367 422 32,000  Level Jacksonville Center
08:59AM 30.8178 -84.1553 333° Northwest 367 422 32,000  Level Jacksonville Center
09:00AM 30.9092 -84.2122 332° Northwest 367 422 32,000  Level Jacksonville Center
09:01AM 30.9983 -84.2667 332° Northwest 367 422 32,000  Level Jacksonville Center
09:02AM 31.0894 -84.3239 332° Northwest 367 422 32,000  Level Jacksonville Center
09:03AM 31.1808 -84.3786 333° Northwest 367 422 32,000  Level Jacksonville Center
09:04AM 31.2678 -84.4358 331° Northwest 367 422 32,000  Level Jacksonville Center
09:05AM 31.3589 -84.4886 334° Northwest 367 422 32,000  Level Jacksonville Center
09:07AM 31.5469 -84.6067 332° Northwest 368 423 32,000  Level Atlanta Center
09:08AM 31.6386 -84.6658 331° Northwest 368 423 32,000  Level Atlanta Center
09:09AM 31.7281 -84.7200 333° Northwest 368 423 32,000  Level Atlanta Center
09:10AM 31.8175 -84.7794 331° Northwest 368 423 32,000  Level Atlanta Center
09:11AM 31.9175 -84.8219 340° North 368 423 32,000  Level Atlanta Center
09:12AM 32.0194 -84.8544 345° North 373 429 32,000  Level Atlanta Center
09:13AM 32.1153 -84.8947 340° North 373 429 32,000  Level Atlanta Center
09:14AM 32.2236 -84.9228 348° North 378 435 32,000  Level Atlanta Center
09:15AM 32.3233 -84.9606 342° North 378 435 32,000  Level Atlanta Center
09:16AM 32.4275 -84.9911 346° North 378 435 32,000  Level Atlanta Center
09:17AM 32.5336 -85.0317 342° North 382 440 32,000  Level Atlanta Center
09:18AM 32.6317 -85.0600 346° North 379 436 32,000  Level Atlanta Center
09:19AM 32.7314 -85.0981 342° North 379 436 32,000  Level Atlanta Center
09:20AM 32.8458 -85.1392 343° North 380 437 32,000  Level Atlanta Center
09:21AM 32.9333 -85.1700 344° North 380 437 32,000  Level Atlanta Center
09:22AM 33.0333 -85.1958 348° North 375 432 32,000  Level Atlanta Center
09:23AM 33.1411 -85.2569 335° Northwest 381 438 32,000  Level Atlanta Center
09:24AM 33.2306 -85.2931 341° North 381 438 32,000  Level Atlanta Center
09:25AM 33.3261 -85.3392 338° Northwest 375 432 32,000  Level Atlanta Center
09:26AM 33.4258 -85.3828 340° North 370 426 32,000  Level Atlanta Center
09:27AM 33.5233 -85.4317 337° Northwest 375 432 32,000  Level Atlanta Center
09:28AM 33.6211 -85.4733 340° North 375 432 32,000  Level Atlanta Center
09:29AM 33.7289 -85.5250 338° Northwest 380 437 32,000  Level Atlanta Center
09:30AM 33.8264 -85.5692 339° North 374 430 32,000  Level Atlanta Center
09:31AM 33.9239 -85.6161 338° Northwest 374 430 32,000  Level Atlanta Center
09:32AM 34.0214 -85.6631 338° Northwest 374 430 32,000  Level Atlanta Center
09:33AM 34.1231 -85.7075 340° North 379 436 32,000  Level Atlanta Center
09:34AM 34.2186 -85.7544 338° Northwest 373 429 32,000  Level Atlanta Center
09:35AM 34.3203 -85.7994 340° North 381 438 32,100  Climbing Atlanta Center
09:36AM 34.4053 -85.8389 339° North 375 432 32,000 -60 Descending Atlanta Center
09:37AM 34.5067 -85.8839 340° North 375 432 32,000  Level Atlanta Center
09:38AM 34.6019 -85.9339 337° Northwest 375 432 32,000  Level Atlanta Center
09:39AM 34.7006 -85.9786 340° North 383 441 32,000  Level Memphis Center
09:40AM 34.7975 -86.0308 336° Northwest 384 442 32,000  Level Memphis Center
09:41AM 34.9156 -86.0836 340° North 387 445 32,000  Level Memphis Center
09:42AM 35.0153 -86.1353 337° Northwest 387 445 32,000  Level Memphis Center
09:43AM 35.1186 -86.1825 340° North 390 449 32,000  Level Memphis Center
09:44AM 35.2164 -86.2333 337° Northwest 389 448 32,000  Level Memphis Center
09:45AM 35.3200 -86.2769 341° North 389 448 32,000  Level Memphis Center
09:46AM 35.4169 -86.3347 334° Northwest 386 444 32,000  Level Memphis Center
09:47AM 35.5375 -86.3861 341° North 386 444 32,000  Level Memphis Center
09:48AM 35.6353 -86.4392 336° Northwest 385 443 32,000  Level Memphis Center
09:49AM 35.7383 -86.4850 340° North 385 443 32,000  Level Memphis Center
09:50AM 35.8383 -86.5383 337° Northwest 385 443 32,000  Level Memphis Center
09:52AM 35.9414 -86.5856 340° North 388 447 32,000  Level Memphis Center
09:53AM 36.0417 -86.6386 337° Northwest 388 447 32,000  Level Memphis Center
09:54AM 36.1453 -86.6878 339° North 391 450 32,000  Level Memphis Center
09:55AM 36.2397 -86.7494 332° Northwest 381 438 32,000  Level Memphis Center
09:56AM 36.3619 -86.8125 337° Northwest 394 453 32,000  Level Memphis Center
09:57AM 36.4494 -86.8689 333° Northwest 392 451 32,000  Level Memphis Center
09:58AM 36.5497 -86.9233 336° Northwest 388 447 32,000  Level Memphis Center
09:59AM 36.6453 -86.9867 332° Northwest 388 447 32,000  Level Memphis Center
10:00AM 36.7639 -87.0511 336° Northwest 391 450 32,000  Level Memphis Center
10:01AM 36.8594 -87.1147 332° Northwest 391 450 32,000  Level Memphis Center
10:02AM 36.9600 -87.1694 337° Northwest 391 450 32,000  Level Memphis Center
10:03AM 37.0564 -87.2331 332° Northwest 390 449 32,000  Level Memphis Center
10:04AM 37.1564 -87.2892 336° Northwest 389 448 32,000  Level Memphis Center
10:05AM 37.2542 -87.3517 333° Northwest 389 448 32,000  Level Memphis Center
10:06AM 37.3544 -87.4089 336° Northwest 391 450 32,000  Level Memphis Center
10:07AM 37.4350 -87.4636 332° Northwest 391 450 32,000  Level Indianapolis Center
10:08AM 37.5383 -87.5211 336° Northwest 397 457 32,000 -300 Level Indianapolis Center
10:09AM 37.6356 -87.5844 333° Northwest 396 456 31,400 -1,020 Descending Indianapolis Center
10:10AM 37.7378 -87.6436 335° Northwest 396 456 30,000 -720 Descending Indianapolis Center
10:11AM 37.8333 -87.7067 332° Northwest 396 456 30,000  Level Indianapolis Center
10:12AM 37.9386 -87.7656 336° Northwest 403 464 30,000  Level Indianapolis Center
10:13AM 38.0606 -87.8403 334° Northwest 403 464 30,000  Level Indianapolis Center
10:14AM 38.1653 -87.9006 336° Northwest 404 465 30,000  Level Indianapolis Center
10:15AM 38.2672 -87.9622 335° Northwest 403 464 30,000  Level Indianapolis Center
10:16AM 38.3694 -88.0217 335° Northwest 403 464 30,000 -300 Level Indianapolis Center
10:17AM 38.4708 -88.0844 334° Northwest 403 464 29,500 -1,380 Descending Indianapolis Center
10:18AM 38.5739 -88.1442 336° Northwest 401 461 27,300 -1,920 Descending Kansas City Center
10:19AM 38.6789 -88.2094 334° Northwest 409 471 25,700 -1,560 Descending Kansas City Center
10:20AM 38.7853 -88.2703 336° Northwest 412 474 24,100 -900 Descending Kansas City Center
10:21AM 38.8853 -88.3406 331° Northwest 412 474 24,000 -840 Descending Kansas City Center
10:22AM 38.9869 -88.4094 332° Northwest 411 473 22,400 -1,380 Descending Kansas City Center
10:23AM 39.0842 -88.4850 329° Northwest 411 473 21,200 -1,200 Descending Kansas City Center
10:24AM 39.1800 -88.5550 330° Northwest 402 463 20,000 -600 Descending Kansas City Center
10:25AM 39.2761 -88.6250 331° Northwest 400 460 20,000  Level Kansas City Center
10:26AM 39.3736 -88.6950 331° Northwest 400 460 20,000  Level Kansas City Center
10:27AM 39.4747 -88.7772 328° Northwest 400 460 20,000 -120 Level Kansas City Center
10:28AM 39.5669 -88.8394 333° Northwest 383 441 19,800 -1,080 Descending Kansas City Center
10:29AM 39.6411 -88.9053 326° Northwest 333 383 17,900 -2,040 Descending Kansas City Center
10:30AM 39.7353 -88.9717 332° Northwest 325 374 15,700 -2,040 Descending Kansas City Center
10:31AM 39.8086 -89.0339 327° Northwest 321 369 13,700 -1,800 Descending Kansas City Center
10:32AM 39.8842 -89.0853 332° Northwest 311 358 12,100 -840 Descending Kansas City Center
10:33AM 39.9536 -89.1456 326° Northwest 305 351 12,000  Descending Kansas City Center
10:34AM 40.0239 -89.1917 333° Northwest 290 334 12,100 -300 Climbing Kansas City Center
10:35AM 40.0858 -89.2439 327° Northwest 270 311 11,500 -540 Descending Kansas City Center
10:37AM 40.1514 -89.2928 330° Northwest 270 311 11,000 -240 Descending Kansas City Center
10:38AM 40.2186 -89.3303 337° Northwest 268 308 11,100 -540 Climbing Kansas City Center
10:39AM 40.2983 -89.3881 331° Northwest 271 312 10,000 -1,260 Descending Kansas City Center
10:40AM 40.3917 -89.4494 333° Northwest 270 311 8,000 -1,560 Descending Chicago Center
10:41AM 40.4556 -89.4925 333° Northwest 266 306 6,300 -1,620 Descending Chicago Center
10:42AM 40.5186 -89.5344 333° Northwest 260 299 4,700 -1,680 Descending Chicago Center
10:43AM 40.5819 -89.5733 335° Northwest 258 297 2,900 -1,500 Descending Chicago Center
10:44AM 40.6297 -89.6356 315° West 223 257 1,600 -1,020 Descending Chicago Center
10:45AM 40.6528 -89.6764 307° West 175 201 900 -540 Descending Chicago Center
10:46AM 40.6736 -89.7117 308° West 160 184 600 -300 Descending Chicago Center
10:48AM 40.6642 -89.6933 143° Southeast  Level Estimated